Time;durP1;ratioP1;P1;durP2;ratioP2;P2;SDS_P1;SDS_P2;PMS_P1;PMS_P2;Temp;Humidity;BMP_temperature;BMP_pressure;BME280_temperature;BME280_humidity;BME280_pressure;Samples;Min_cycle;Max_cycle;Signal;HPM_P1;HPM_P2
2023/10/31 00:01:55;;;;;;;0.20;0.20;;;;;;;17.16;73.93;99448.66;5062070;28;20029;-64
2023/10/31 00:04:20;;;;;;;0.10;0.10;;;;;;;16.52;77.24;99455.00;5072920;28;20041;-65
2023/10/31 00:06:46;;;;;;;0.25;0.25;;;;;;;16.20;77.70;99458.47;5054411;28;20037;-63
2023/10/31 00:09:11;;;;;;;0.10;0.10;;;;;;;15.53;80.28;99457.03;5072934;28;20036;-65
2023/10/31 00:11:37;;;;;;;0.10;0.10;;;;;;;15.13;81.51;99460.22;5073105;28;20044;-64
2023/10/31 00:14:02;;;;;;;0.20;0.20;;;;;;;14.78;81.70;99468.72;5054752;28;20119;-64
2023/10/31 00:16:28;;;;;;;0.40;0.40;;;;;;;14.59;82.73;99474.03;5072611;28;20072;-64
2023/10/31 00:18:53;;;;;;;0.22;0.22;;;;;;;14.87;80.41;99469.69;5072692;28;20038;-63
2023/10/31 00:21:19;;;;;;;0.20;0.20;;;;;;;14.47;82.53;99479.00;5070318;28;20040;-64
2023/10/31 00:23:48;;;;;;;0.50;0.50;;;;;;;15.41;79.72;99482.91;5072727;28;20081;-65
2023/10/31 00:26:14;;;;;;;0.25;0.25;;;;;;;14.86;81.31;99485.13;5054927;28;20098;-63
2023/10/31 00:28:40;;;;;;;0.30;0.30;;;;;;;14.65;81.45;99491.81;5072798;28;20037;-65
2023/10/31 00:31:07;;;;;;;0.28;0.28;;;;;;;15.27;78.79;99493.59;5072674;28;20051;-64
2023/10/31 00:33:34;;;;;;;0.10;0.10;;;;;;;14.77;80.01;99489.53;5072516;28;20044;-65
2023/10/31 00:35:59;;;;;;;0.20;0.20;;;;;;;14.72;81.79;99489.56;5072302;28;20032;-65
2023/10/31 00:38:24;;;;;;;0.40;0.40;;;;;;;14.56;83.68;99485.41;5071886;28;20111;-65
2023/10/31 00:40:49;;;;;;;0.20;0.20;;;;;;;14.10;83.55;99494.94;5072775;28;20032;-62
2023/10/31 00:43:15;;;;;;;0.20;0.20;;;;;;;15.04;80.67;99493.59;5072059;28;20119;-63
2023/10/31 00:45:40;;;;;;;0.20;0.20;;;;;;;14.83;81.63;99507.34;5072235;28;20036;-62
2023/10/31 00:48:05;;;;;;;0.30;0.30;;;;;;;15.00;79.97;99503.41;5072190;28;20495;-63
2023/10/31 00:50:31;;;;;;;0.30;0.30;;;;;;;14.74;81.45;99517.13;5072160;28;20511;-64
2023/10/31 00:52:56;;;;;;;0.40;0.40;;;;;;;14.38;82.20;99537.47;5072526;28;20504;-65
2023/10/31 00:55:21;;;;;;;0.30;0.30;;;;;;;14.88;81.86;99519.97;5071895;28;20067;-64
2023/10/31 00:57:47;;;;;;;0.20;0.20;;;;;;;14.98;81.80;99520.69;5071585;28;20067;-63
2023/10/31 01:00:12;;;;;;;0.30;0.30;;;;;;;14.37;82.80;99545.84;5071844;28;20045;-63
2023/10/31 01:02:38;;;;;;;0.20;0.20;;;;;;;14.34;82.84;99541.00;5071865;28;20346;-62
2023/10/31 01:05:04;;;;;;;0.20;0.20;;;;;;;14.48;81.34;99542.78;5072109;28;20052;-63
2023/10/31 01:07:29;;;;;;;0.30;0.30;;;;;;;14.86;79.58;99550.03;5071543;28;20067;-64
2023/10/31 01:09:54;;;;;;;0.30;0.30;;;;;;;14.18;82.83;99561.88;5071863;28;20032;-64
2023/10/31 01:12:20;;;;;;;0.32;0.32;;;;;;;14.88;79.27;99549.75;5071698;28;20051;-63
2023/10/31 01:14:45;;;;;;;0.20;0.20;;;;;;;15.81;76.52;99547.38;5071675;28;20476;-64
2023/10/31 01:17:10;;;;;;;0.20;0.20;;;;;;;15.82;76.05;99546.31;5072015;28;20111;-63
2023/10/31 01:19:36;;;;;;;0.20;0.20;;;;;;;15.83;77.01;99553.31;5071628;28;20045;-63
2023/10/31 01:22:01;;;;;;;0.20;0.20;;;;;;;15.86;76.30;99549.22;5071116;28;20075;-64
2023/10/31 01:24:26;;;;;;;0.30;0.30;;;;;;;16.12;74.82;99558.63;5071526;28;20484;-64
2023/10/31 01:26:52;;;;;;;0.30;0.30;;;;;;;16.01;74.97;99560.69;5071462;28;20060;-63
2023/10/31 01:29:17;;;;;;;0.22;0.22;;;;;;;15.86;76.22;99569.00;5071261;28;20468;-64
2023/10/31 01:31:43;;;;;;;0.30;0.30;;;;;;;15.70;77.09;99567.59;5071808;28;20032;-63
2023/10/31 01:34:08;;;;;;;0.20;0.20;;;;;;;15.78;77.15;99565.03;5071121;28;20043;-64
2023/10/31 01:36:34;;;;;;;0.30;0.30;;;;;;;15.75;76.24;99573.75;5071005;28;20060;-64
2023/10/31 01:38:59;;;;;;;0.20;0.20;;;;;;;16.23;75.53;99581.78;5070889;28;20067;-63
2023/10/31 01:41:25;;;;;;;0.28;0.28;;;;;;;16.33;74.91;99595.97;5071235;28;20141;-63
2023/10/31 01:43:50;;;;;;;0.20;0.20;;;;;;;16.80;72.13;99611.31;5071436;28;20025;-63
2023/10/31 01:46:16;;;;;;;0.20;0.20;;;;;;;17.42;70.01;99612.69;5071147;28;20142;-63
2023/10/31 01:48:42;;;;;;;0.20;0.20;;;;;;;17.79;68.31;99609.03;5071135;28;20047;-64
2023/10/31 01:51:09;;;;;;;0.30;0.30;;;;;;;18.15;66.43;99610.72;5070853;28;20036;-63
2023/10/31 01:53:36;;;;;;;0.25;0.25;;;;;;;17.87;68.13;99611.03;5076135;28;20349;-64
2023/10/31 01:56:03;;;;;;;0.20;0.20;;;;;;;17.40;69.84;99610.28;5082992;28;20029;-64
2023/10/31 01:58:30;;;;;;;0.30;0.30;;;;;;;17.69;69.38;99611.94;5070427;28;20041;-64
2023/10/31 02:00:59;;;;;;;0.30;0.30;;;;;;;16.76;71.45;99617.63;5070836;28;20078;-64
2023/10/31 02:03:24;;;;;;;0.17;0.17;;;;;;;17.49;69.05;99624.78;5070765;28;20040;-64
2023/10/31 02:05:51;;;;;;;0.30;0.30;;;;;;;17.55;69.06;99609.22;5070597;28;20454;-64
2023/10/31 02:08:16;;;;;;;0.30;0.30;;;;;;;17.54;68.48;99613.03;5070550;28;20024;-65
2023/10/31 02:10:42;;;;;;;0.40;0.40;;;;;;;17.69;68.31;99615.44;5071223;28;20047;-64
2023/10/31 02:13:18;;;;;;;0.10;0.10;;;;;;;17.59;69.35;99614.84;5070553;28;20665;-64
2023/10/31 02:15:44;;;;;;;0.17;0.17;;;;;;;17.93;67.02;99617.97;5070653;28;20113;-64
2023/10/31 02:18:10;;;;;;;0.30;0.30;;;;;;;16.58;72.09;99627.41;5070518;28;20120;-63
2023/10/31 02:20:36;;;;;;;0.20;0.20;;;;;;;17.10;71.17;99621.66;5070507;28;20555;-63
2023/10/31 02:23:02;;;;;;;0.20;0.20;;;;;;;17.04;71.36;99627.50;5070578;28;20102;-63
2023/10/31 02:25:28;;;;;;;0.30;0.30;;;;;;;17.07;71.37;99627.69;5070701;28;20044;-63
2023/10/31 02:27:53;;;;;;;0.20;0.20;;;;;;;16.60;72.38;99631.44;5052225;28;20547;-64
2023/10/31 02:30:19;;;;;;;0.10;0.10;;;;;;;16.44;73.79;99630.00;5070485;28;20399;-63
2023/10/31 02:32:44;;;;;;;0.20;0.20;;;;;;;17.22;70.56;99646.44;5051294;28;20025;-64
2023/10/31 02:35:10;;;;;;;0.20;0.20;;;;;;;16.74;74.00;99646.97;5050902;28;20028;-64
2023/10/31 02:37:36;;;;;;;0.20;0.20;;;;;;;16.83;70.91;99654.13;5032135;28;20655;-63
2023/10/31 02:40:01;;;;;;;0.20;0.20;;;;;;;17.21;70.55;99658.41;5050099;28;20043;-63
2023/10/31 02:42:27;;;;;;;0.30;0.30;;;;;;;16.97;70.68;99663.16;5050269;28;20041;-64
2023/10/31 02:44:52;;;;;;;0.20;0.20;;;;;;;16.35;74.14;99658.84;5050398;28;20087;-64
2023/10/31 02:47:18;;;;;;;0.30;0.30;;;;;;;16.41;73.25;99657.69;5050140;28;20036;-63
2023/10/31 02:49:43;;;;;;;0.20;0.20;;;;;;;17.11;70.67;99657.75;5050386;28;20039;-64
2023/10/31 02:52:09;;;;;;;0.28;0.28;;;;;;;16.63;72.48;99662.56;5049854;28;20041;-63
2023/10/31 02:54:34;;;;;;;0.20;0.20;;;;;;;16.70;72.18;99673.88;5050021;28;20033;-64
2023/10/31 02:56:59;;;;;;;0.30;0.30;;;;;;;15.88;75.05;99660.81;5050285;28;20044;-64
2023/10/31 02:59:25;;;;;;;0.20;0.20;;;;;;;16.73;72.05;99673.28;5049615;28;20480;-63
2023/10/31 03:01:50;;;;;;;0.20;0.20;;;;;;;16.02;74.79;99673.38;5050559;28;20097;-63
2023/10/31 03:04:16;;;;;;;0.20;0.20;;;;;;;16.40;73.60;99683.22;5050064;28;20044;-63
2023/10/31 03:06:41;;;;;;;0.15;0.15;;;;;;;16.53;72.52;99677.09;5054036;28;20033;-64
2023/10/31 03:09:07;;;;;;;0.10;0.10;;;;;;;15.75;76.17;99675.84;5053928;28;20447;-63
2023/10/31 03:11:32;;;;;;;0.30;0.30;;;;;;;16.07;74.44;99684.19;5053887;28;20060;-64
2023/10/31 03:13:58;;;;;;;0.10;0.10;;;;;;;15.83;75.68;99686.06;5054586;28;20049;-65
2023/10/31 03:16:24;;;;;;;0.10;0.10;;;;;;;16.06;75.54;99693.38;5053849;28;20051;-63
2023/10/31 03:18:49;;;;;;;0.30;0.30;;;;;;;16.36;74.59;99689.50;5053838;28;20045;-64
2023/10/31 03:21:15;;;;;;;0.20;0.20;;;;;;;16.44;73.89;99692.38;5056758;28;20072;-64
2023/10/31 03:23:48;;;;;;;0.30;0.30;;;;;;;16.14;75.34;99695.47;5073623;28;20036;-65
2023/10/31 03:26:14;;;;;;;0.30;0.30;;;;;;;15.71;76.46;99700.00;5074222;28;20048;-64
2023/10/31 03:28:39;;;;;;;0.30;0.30;;;;;;;16.49;73.57;99705.09;5073568;28;20032;-64
2023/10/31 03:31:05;;;;;;;0.30;0.30;;;;;;;16.00;74.93;99699.16;5073501;28;20047;-63
2023/10/31 03:33:30;;;;;;;0.28;0.28;;;;;;;16.35;73.93;99704.94;5073458;28;20062;-63
2023/10/31 03:35:56;;;;;;;0.20;0.20;;;;;;;16.21;74.22;99703.25;5055052;28;20033;-66
2023/10/31 03:38:21;;;;;;;0.30;0.30;;;;;;;16.16;74.76;99720.38;5073232;28;20507;-64
2023/10/31 03:40:46;;;;;;;0.30;0.30;;;;;;;16.72;71.06;99716.97;5073580;28;20107;-64
2023/10/31 03:43:12;;;;;;;0.40;0.40;;;;;;;16.88;72.60;99718.38;5073334;28;20143;-63
2023/10/31 03:45:37;;;;;;;0.20;0.20;;;;;;;16.01;76.32;99725.97;5057122;28;20128;-63
2023/10/31 03:48:03;;;;;;;0.50;0.50;;;;;;;16.49;74.11;99724.09;5088822;28;20037;-63
2023/10/31 03:50:28;;;;;;;0.30;0.30;;;;;;;16.32;74.19;99735.38;5073190;28;20024;-63
2023/10/31 03:52:54;;;;;;;0.30;0.30;;;;;;;16.26;74.73;99730.28;5073576;28;20520;-64
2023/10/31 03:55:19;;;;;;;0.20;0.20;;;;;;;17.01;72.12;99736.63;5073198;28;20123;-64
2023/10/31 03:57:44;;;;;;;0.40;0.40;;;;;;;16.75;72.04;99738.91;5072617;28;20126;-65
2023/10/31 04:00:11;;;;;;;0.10;0.10;;;;;;;16.79;71.69;99742.66;5073161;28;20059;-65
2023/10/31 04:02:36;;;;;;;0.35;0.35;;;;;;;17.04;71.55;99739.56;5073292;28;20051;-64
2023/10/31 04:05:02;;;;;;;0.30;0.30;;;;;;;16.75;72.42;99747.03;5073342;28;20016;-64
2023/10/31 04:07:28;;;;;;;0.20;0.20;;;;;;;17.30;70.73;99748.94;5072736;28;20040;-64
2023/10/31 04:09:54;;;;;;;0.15;0.15;;;;;;;16.51;72.48;99751.72;5072928;28;20052;-63
2023/10/31 04:12:19;;;;;;;0.20;0.20;;;;;;;16.59;73.99;99762.72;5072949;28;20055;-64
2023/10/31 04:14:44;;;;;;;0.40;0.40;;;;;;;16.96;72.66;99763.88;5072907;28;20090;-64
2023/10/31 04:17:10;;;;;;;0.32;0.32;;;;;;;16.90;71.89;99765.84;5072574;28;20429;-64
2023/10/31 04:19:36;;;;;;;0.20;0.20;;;;;;;16.65;72.45;99772.41;5072663;28;20492;-63
2023/10/31 04:22:02;;;;;;;0.20;0.20;;;;;;;15.97;74.93;99783.72;5054108;28;20055;-65
2023/10/31 04:24:27;;;;;;;0.30;0.30;;;;;;;17.01;71.35;99772.75;5072486;28;20541;-64
2023/10/31 04:26:52;;;;;;;0.30;0.30;;;;;;;17.51;69.48;99774.69;5054417;28;20025;-64
2023/10/31 04:29:18;;;;;;;0.30;0.30;;;;;;;17.34;70.24;99779.84;5072413;28;20046;-64
2023/10/31 04:31:43;;;;;;;0.30;0.30;;;;;;;17.57;69.24;99783.59;5073273;28;20468;-64
2023/10/31 04:34:09;;;;;;;0.20;0.20;;;;;;;17.37;70.92;99781.97;5072500;28;20090;-65
2023/10/31 04:36:34;;;;;;;0.22;0.22;;;;;;;17.29;70.01;99779.94;5072503;28;20523;-65
2023/10/31 04:38:59;;;;;;;0.30;0.30;;;;;;;15.97;76.59;99789.16;5054241;28;20052;-64
2023/10/31 04:41:25;;;;;;;0.20;0.20;;;;;;;16.88;73.62;99791.66;5072522;28;20566;-65
2023/10/31 04:43:50;;;;;;;0.28;0.28;;;;;;;16.52;73.98;99783.16;5090378;28;20032;-64
2023/10/31 04:46:16;;;;;;;0.28;0.28;;;;;;;17.07;72.43;99793.28;5072442;28;20037;-64
2023/10/31 04:48:42;;;;;;;0.20;0.20;;;;;;;16.96;73.26;99796.44;5072218;28;20041;-64
2023/10/31 04:51:07;;;;;;;0.32;0.32;;;;;;;16.68;73.75;99800.88;5072279;28;20090;-65
2023/10/31 04:53:34;;;;;;;0.30;0.30;;;;;;;16.47;73.83;99802.19;5071744;28;20020;-63
2023/10/31 04:55:59;;;;;;;0.20;0.20;;;;;;;17.22;70.89;99803.91;5072714;28;20031;-66
2023/10/31 04:58:25;;;;;;;0.20;0.20;;;;;;;16.69;71.96;99797.03;5071671;28;20028;-63
2023/10/31 05:00:50;;;;;;;0.30;0.30;;;;;;;16.53;73.41;99803.75;5068003;28;20060;-64
2023/10/31 05:03:16;;;;;;;0.30;0.30;;;;;;;16.61;72.75;99803.91;5051153;28;20368;-64
2023/10/31 05:05:41;;;;;;;0.20;0.20;;;;;;;16.34;74.20;99806.38;5055189;28;20037;-64
2023/10/31 05:08:06;;;;;;;0.20;0.20;;;;;;;16.60;72.41;99813.16;5063579;28;20017;-64
2023/10/31 05:10:32;;;;;;;0.22;0.22;;;;;;;16.48;73.73;99809.22;5061050;28;20091;-64
2023/10/31 05:12:57;;;;;;;0.20;0.20;;;;;;;16.48;73.40;99814.63;5067783;28;20048;-64
2023/10/31 05:15:23;;;;;;;0.20;0.20;;;;;;;15.83;75.61;99822.34;5071389;28;20035;-64
2023/10/31 05:17:48;;;;;;;0.30;0.30;;;;;;;16.63;73.47;99811.75;5070731;28;20032;-64
2023/10/31 05:20:13;;;;;;;0.20;0.20;;;;;;;16.64;72.50;99825.06;5072204;28;20137;-64
2023/10/31 05:22:40;;;;;;;0.22;0.22;;;;;;;16.27;73.19;99815.97;5071238;28;20048;-65
2023/10/31 05:25:06;;;;;;;0.25;0.25;;;;;;;16.66;73.13;99814.72;5071372;28;20040;-64
2023/10/31 05:27:31;;;;;;;0.30;0.30;;;;;;;16.49;72.56;99816.28;5071298;28;20072;-64
2023/10/31 05:29:57;;;;;;;0.30;0.30;;;;;;;16.61;71.92;99820.19;5070514;28;20553;-64
2023/10/31 05:32:22;;;;;;;0.20;0.20;;;;;;;16.49;72.26;99819.00;5071259;28;20032;-64
2023/10/31 05:34:47;;;;;;;0.22;0.22;;;;;;;16.06;73.96;99818.06;5071641;28;20028;-64
2023/10/31 05:37:13;;;;;;;0.20;0.20;;;;;;;16.46;73.03;99820.34;5071120;28;20094;-64
2023/10/31 05:39:38;;;;;;;0.20;0.20;;;;;;;16.31;73.56;99822.41;5085768;28;20044;-65
2023/10/31 05:42:04;;;;;;;0.28;0.28;;;;;;;16.71;71.42;99819.25;5049305;28;20029;-62
2023/10/31 05:44:29;;;;;;;0.32;0.32;;;;;;;16.60;72.60;99829.44;5051125;28;20029;-63
2023/10/31 05:46:54;;;;;;;0.20;0.20;;;;;;;16.52;72.58;99829.25;5051536;28;20032;-65
2023/10/31 05:49:30;;;;;;;0.10;0.10;;;;;;;16.93;70.73;99826.84;5050755;27;20702;-65
2023/10/31 05:51:55;;;;;;;0.30;0.30;;;;;;;16.15;72.85;99834.50;5047596;28;20091;-65
2023/10/31 05:54:20;;;;;;;0.25;0.25;;;;;;;16.32;72.79;99838.41;5047705;28;20083;-63
2023/10/31 05:56:46;;;;;;;0.30;0.30;;;;;;;16.79;70.61;99829.47;5047054;28;20389;-63
2023/10/31 05:59:12;;;;;;;0.30;0.30;;;;;;;16.98;70.29;99843.09;5047551;28;20622;-64
2023/10/31 06:01:37;;;;;;;0.28;0.28;;;;;;;16.61;72.40;99852.75;5046988;28;20429;-64
2023/10/31 06:04:03;;;;;;;0.10;0.10;;;;;;;16.70;71.72;99852.94;5046753;28;20091;-64
2023/10/31 06:06:31;;;;;;;0.35;0.35;;;;;;;16.63;72.02;99852.44;5046804;28;20513;-65
2023/10/31 06:08:57;;;;;;;0.20;0.20;;;;;;;16.69;72.01;99857.53;5046459;28;20033;-64
2023/10/31 06:11:22;;;;;;;0.38;0.38;;;;;;;16.37;72.76;99856.53;5047150;28;20529;-64
2023/10/31 06:13:48;;;;;;;0.22;0.22;;;;;;;16.64;72.61;99860.31;5080042;28;20025;-64
2023/10/31 06:16:13;;;;;;;0.17;0.17;;;;;;;16.25;73.93;99872.38;5047125;28;20029;-64
2023/10/31 06:18:39;;;;;;;0.20;0.20;;;;;;;16.05;73.88;99867.13;5047024;28;20064;-65
2023/10/31 06:21:05;;;;;;;0.30;0.30;;;;;;;16.98;71.50;99865.59;5047388;28;20038;-64
2023/10/31 06:23:30;;;;;;;0.25;0.25;;;;;;;17.00;71.50;99868.03;5045615;28;20070;-64
2023/10/31 06:25:55;;;;;;;0.20;0.20;;;;;;;16.72;72.16;99880.59;5047515;28;20128;-64
2023/10/31 06:28:21;;;;;;;0.20;0.20;;;;;;;16.84;71.24;99874.75;5045576;28;20068;-64
2023/10/31 06:30:46;;;;;;;0.30;0.30;;;;;;;16.62;72.67;99883.41;5044594;28;20128;-64
2023/10/31 06:33:11;;;;;;;0.30;0.30;;;;;;;16.82;71.11;99883.19;5035974;28;20069;-64
2023/10/31 06:35:37;;;;;;;0.32;0.32;;;;;;;16.28;72.86;99890.75;5054640;28;20378;-63
2023/10/31 06:38:02;;;;;;;0.30;0.30;;;;;;;16.29;73.36;99885.06;5046857;28;20025;-64
2023/10/31 06:40:28;;;;;;;0.20;0.20;;;;;;;17.09;71.23;99885.28;5054164;28;20501;-63
2023/10/31 06:42:53;;;;;;;0.30;0.30;;;;;;;16.94;70.38;99897.16;5046774;28;20041;-63
2023/10/31 06:45:19;;;;;;;0.30;0.30;;;;;;;16.32;72.76;99895.34;5046584;28;20041;-63
2023/10/31 06:47:44;;;;;;;0.20;0.20;;;;;;;16.80;70.77;99900.84;5049615;28;20091;-63
2023/10/31 06:50:09;;;;;;;0.30;0.30;;;;;;;15.99;74.47;99898.06;5047108;28;20449;-64
2023/10/31 06:52:35;;;;;;;0.20;0.20;;;;;;;15.99;74.68;99906.19;5046502;28;20045;-65
2023/10/31 06:55:01;;;;;;;0.20;0.20;;;;;;;16.28;73.31;99907.84;5046412;28;20033;-65
2023/10/31 06:57:26;;;;;;;0.20;0.20;;;;;;;16.13;73.62;99909.88;5048506;28;20405;-64
2023/10/31 06:59:52;;;;;;;0.22;0.22;;;;;;;16.15;75.43;99915.81;5043411;28;20037;-64
2023/10/31 07:02:17;;;;;;;0.20;0.20;;;;;;;16.63;72.67;99921.09;5040625;28;20040;-62
2023/10/31 07:04:43;;;;;;;0.30;0.30;;;;;;;15.62;75.91;99925.69;5042579;28;20045;-64
2023/10/31 07:07:08;;;;;;;0.22;0.22;;;;;;;16.15;75.23;99924.78;5052946;28;20412;-65
2023/10/31 07:09:33;;;;;;;0.30;0.30;;;;;;;16.27;74.15;99922.50;5052898;28;20071;-64
2023/10/31 07:11:59;;;;;;;0.20;0.20;;;;;;;16.28;75.37;99921.41;5052781;28;20036;-64
2023/10/31 07:14:24;;;;;;;0.30;0.30;;;;;;;15.92;75.29;99924.69;5052780;28;20071;-64
2023/10/31 07:16:49;;;;;;;0.30;0.30;;;;;;;16.03;74.47;99916.19;5037894;28;20029;-64
2023/10/31 07:19:15;;;;;;;0.13;0.13;;;;;;;15.69;76.28;99927.00;5031401;28;20072;-64
2023/10/31 07:21:40;;;;;;;0.28;0.28;;;;;;;16.14;75.00;99928.56;5032725;28;20117;-63
2023/10/31 07:24:08;;;;;;;0.20;0.20;;;;;;;16.23;74.35;99929.59;5032453;28;20508;-64
2023/10/31 07:26:34;;;;;;;0.20;0.20;;;;;;;15.84;75.17;99940.44;5032516;28;20029;-64
2023/10/31 07:29:00;;;;;;;0.30;0.30;;;;;;;16.65;72.81;99948.75;5032873;28;20076;-64
2023/10/31 07:31:25;;;;;;;0.20;0.20;;;;;;;16.20;75.82;99949.13;5041012;28;20117;-64
2023/10/31 07:33:50;;;;;;;0.30;0.30;;;;;;;16.97;71.56;99950.03;5041427;28;20038;-64
2023/10/31 07:36:16;;;;;;;0.20;0.20;;;;;;;16.87;71.85;99959.09;5032372;28;20052;-64
2023/10/31 07:38:41;;;;;;;0.30;0.30;;;;;;;17.01;70.99;99970.06;5032493;28;20448;-63
2023/10/31 07:41:07;;;;;;;0.30;0.30;;;;;;;16.40;74.39;99962.50;5032954;28;20029;-62
2023/10/31 07:43:32;;;;;;;0.10;0.10;;;;;;;15.90;76.74;99964.81;5032160;28;20025;-64
2023/10/31 07:45:57;;;;;;;0.30;0.30;;;;;;;15.86;75.64;99964.56;5032450;28;20041;-63
2023/10/31 07:48:23;;;;;;;0.10;0.10;;;;;;;15.85;75.57;99973.75;5031933;28;20041;-63
2023/10/31 07:50:48;;;;;;;0.30;0.30;;;;;;;17.01;71.92;99981.75;5032068;28;20063;-64
2023/10/31 07:53:13;;;;;;;0.20;0.20;;;;;;;16.96;71.72;99987.22;5032789;28;20124;-65
2023/10/31 07:55:39;;;;;;;0.20;0.20;;;;;;;16.83;72.70;99995.22;5032096;28;20044;-63
2023/10/31 07:58:04;;;;;;;0.20;0.20;;;;;;;16.50;73.75;99992.28;5036720;28;20025;-63
2023/10/31 08:00:30;;;;;;;0.10;0.10;;;;;;;16.44;73.52;99993.38;5051955;28;20392;-64
2023/10/31 08:02:56;;;;;;;0.20;0.20;;;;;;;16.40;73.57;99996.94;5052174;28;20033;-66
2023/10/31 08:05:21;;;;;;;0.20;0.20;;;;;;;16.48;74.40;100004.47;5052010;28;20491;-63
2023/10/31 08:07:47;;;;;;;0.28;0.28;;;;;;;16.47;73.60;100005.59;5052506;28;20154;-64
2023/10/31 08:10:12;;;;;;;0.40;0.40;;;;;;;16.06;75.17;100007.75;5051640;28;20044;-63
2023/10/31 08:12:38;;;;;;;0.30;0.30;;;;;;;16.34;73.89;100015.16;5050999;28;20055;-63
2023/10/31 08:15:04;;;;;;;0.30;0.30;;;;;;;16.98;71.04;100011.38;5050964;28;20036;-64
2023/10/31 08:17:29;;;;;;;0.20;0.20;;;;;;;16.67;72.52;100008.94;5031695;28;20151;-63
2023/10/31 08:19:54;;;;;;;0.20;0.20;;;;;;;17.41;70.50;100007.63;5032201;28;20029;-64
2023/10/31 08:22:20;;;;;;;0.20;0.20;;;;;;;17.20;71.40;100015.19;5071236;28;20052;-64
2023/10/31 08:24:45;;;;;;;0.25;0.25;;;;;;;16.54;72.53;100016.94;5071117;28;20448;-64
2023/10/31 08:27:12;;;;;;;0.30;0.30;;;;;;;16.17;72.88;100011.22;5075841;28;20032;-64
2023/10/31 08:29:37;;;;;;;0.40;0.40;;;;;;;16.79;71.83;100022.13;5066005;28;20044;-63
2023/10/31 08:32:03;;;;;;;0.50;0.50;;;;;;;17.23;70.02;100022.78;5071870;28;20508;-64
2023/10/31 08:34:29;;;;;;;0.22;0.22;;;;;;;16.63;71.90;100024.16;5071199;28;20048;-64
2023/10/31 08:36:56;;;;;;;0.25;0.25;;;;;;;16.65;72.63;100026.59;5071257;28;20047;-63
2023/10/31 08:39:22;;;;;;;0.20;0.20;;;;;;;16.55;73.05;100027.50;5070928;28;20119;-63
2023/10/31 08:41:57;;;;;;;0.30;0.30;;;;;;;16.62;74.18;100032.59;5071108;28;20531;-63
2023/10/31 08:44:23;;;;;;;0.20;0.20;;;;;;;17.03;71.84;100027.59;5071078;28;20040;-63
2023/10/31 08:46:48;;;;;;;0.30;0.30;;;;;;;16.90;71.48;100031.00;5071451;28;20017;-63
2023/10/31 08:49:17;;;;;;;0.30;0.30;;;;;;;16.80;74.01;100037.34;5070210;28;20063;-64
2023/10/31 08:51:43;;;;;;;0.25;0.25;;;;;;;16.97;73.54;100039.59;5070726;28;20048;-64
2023/10/31 08:54:09;;;;;;;0.20;0.20;;;;;;;16.60;75.11;100041.03;5070601;28;20135;-62
2023/10/31 08:56:35;;;;;;;0.30;0.30;;;;;;;16.90;73.86;100047.28;5070395;28;20103;-64
2023/10/31 08:59:00;;;;;;;0.20;0.20;;;;;;;17.48;72.54;100046.09;5083561;28;20020;-63
2023/10/31 09:01:28;;;;;;;0.30;0.30;;;;;;;17.58;71.15;100048.72;5090606;28;20380;-58
2023/10/31 09:03:53;;;;;;;0.30;0.30;;;;;;;16.77;73.86;100056.88;5066143;28;20052;-57
2023/10/31 09:06:19;;;;;;;0.20;0.20;;;;;;;17.30;72.47;100050.38;5052081;28;20370;-58
2023/10/31 09:08:44;;;;;;;0.25;0.25;;;;;;;17.58;71.87;100059.59;5068992;28;20037;-58
2023/10/31 09:11:10;;;;;;;0.20;0.20;;;;;;;17.18;72.58;100060.00;5069666;28;20082;-63
2023/10/31 09:13:35;;;;;;;0.20;0.20;;;;;;;18.21;69.55;100051.97;5069661;28;20051;-63
2023/10/31 09:16:01;;;;;;;0.17;0.17;;;;;;;17.78;70.91;100072.94;5069487;28;20469;-62
2023/10/31 09:18:27;;;;;;;0.30;0.30;;;;;;;17.64;71.25;100073.94;5068889;28;20055;-64
2023/10/31 09:20:53;;;;;;;0.20;0.20;;;;;;;17.71;72.00;100077.91;5069402;28;20028;-62
2023/10/31 09:23:18;;;;;;;0.30;0.30;;;;;;;17.41;72.72;100087.19;5068668;28;20032;-63
2023/10/31 09:25:44;;;;;;;0.10;0.10;;;;;;;17.13;74.07;100082.59;5066657;28;20377;-63
2023/10/31 09:28:10;;;;;;;0.10;0.10;;;;;;;17.89;71.58;100079.84;5068698;28;20036;-64
2023/10/31 09:30:35;;;;;;;0.28;0.28;;;;;;;17.71;72.73;100080.63;5069086;28;20025;-63
2023/10/31 09:33:01;;;;;;;0.20;0.20;;;;;;;18.23;70.80;100096.00;5068955;28;20028;-63
2023/10/31 09:35:26;;;;;;;0.20;0.20;;;;;;;18.16;71.15;100101.00;5068633;28;20028;-63
2023/10/31 09:37:52;;;;;;;0.13;0.13;;;;;;;17.72;72.72;100104.00;5069089;28;20024;-63
2023/10/31 09:40:18;;;;;;;0.30;0.30;;;;;;;18.71;69.61;100104.84;5068743;28;20037;-64
2023/10/31 09:42:46;;;;;;;0.20;0.20;;;;;;;18.40;70.29;100107.16;5068804;28;20051;-64
2023/10/31 09:45:13;;;;;;;0.20;0.20;;;;;;;18.48;69.89;100111.97;5068714;28;20054;-64
2023/10/31 09:47:38;;;;;;;0.10;0.10;;;;;;;18.04;72.09;100117.72;5068272;28;20037;-62
2023/10/31 09:50:04;;;;;;;0.20;0.20;;;;;;;18.70;68.91;100109.47;5069433;28;20028;-62
2023/10/31 09:52:29;;;;;;;0.20;0.20;;;;;;;18.18;69.97;100120.56;5068424;28;20040;-64
2023/10/31 09:54:56;;;;;;;0.20;0.20;;;;;;;18.50;70.12;100112.50;5068564;28;20036;-63
2023/10/31 09:57:21;;;;;;;0.10;0.10;;;;;;;19.51;66.85;100117.06;5068598;28;20054;-64
2023/10/31 09:59:47;;;;;;;0.20;0.20;;;;;;;19.05;67.78;100119.78;5069183;28;20554;-63
2023/10/31 10:02:12;;;;;;;0.20;0.20;;;;;;;18.63;70.01;100125.38;5069023;28;20036;-62
2023/10/31 10:04:38;;;;;;;0.25;0.25;;;;;;;18.96;67.71;100137.09;5069353;28;20038;-62
2023/10/31 10:07:04;;;;;;;0.20;0.20;;;;;;;18.56;68.66;100141.25;5069453;28;20523;-63
2023/10/31 10:09:31;;;;;;;0.20;0.20;;;;;;;18.55;69.82;100149.72;5069096;28;20496;-63
2023/10/31 10:11:59;;;;;;;0.28;0.28;;;;;;;18.56;69.32;100146.69;5069510;28;20040;-63
2023/10/31 10:14:28;;;;;;;0.30;0.30;;;;;;;18.91;68.27;100150.78;5069329;28;20031;-63
2023/10/31 10:16:54;;;;;;;0.20;0.20;;;;;;;18.57;69.20;100159.22;5069642;28;20021;-62
2023/10/31 10:19:21;;;;;;;0.10;0.10;;;;;;;19.67;65.45;100156.56;5068679;28;20044;-62
2023/10/31 10:21:57;;;;;;;0.13;0.13;;;;;;;19.03;67.73;100168.28;5069151;28;20033;-63
2023/10/31 10:24:24;;;;;;;0.20;0.20;;;;;;;19.68;64.14;100166.34;5068953;28;20028;-63
2023/10/31 10:26:51;;;;;;;0.28;0.28;;;;;;;19.20;66.41;100176.69;5069634;28;20028;-63
2023/10/31 10:29:17;;;;;;;0.30;0.30;;;;;;;18.94;66.62;100172.78;5070446;28;20096;-63
2023/10/31 10:31:43;;;;;;;0.10;0.10;;;;;;;18.93;64.53;100173.88;5069384;28;20044;-62
2023/10/31 10:34:09;;;;;;;0.20;0.20;;;;;;;19.10;63.22;100192.41;5069524;28;20101;-62
2023/10/31 10:36:35;;;;;;;0.20;0.20;;;;;;;18.76;65.96;100181.78;5072630;28;20073;-63
2023/10/31 10:39:01;;;;;;;0.20;0.20;;;;;;;18.81;64.28;100183.63;5073571;28;20044;-62
2023/10/31 10:41:27;;;;;;;0.20;0.20;;;;;;;18.66;65.14;100181.09;5073008;28;20048;-61
2023/10/31 10:44:06;;;;;;;0.20;0.20;;;;;;;18.53;65.53;100182.66;5073775;28;20036;-62
2023/10/31 10:46:39;;;;;;;0.20;0.20;;;;;;;18.97;63.19;100188.53;5070331;28;20043;-61
2023/10/31 10:49:06;;;;;;;0.20;0.20;;;;;;;18.90;64.68;100195.47;5072751;28;20135;-62
2023/10/31 10:51:54;;;;;;;0.10;0.10;;;;;;;19.22;61.49;100190.84;5073261;28;20039;-62
2023/10/31 10:54:30;;;;;;;0.30;0.30;;;;;;;18.53;61.57;100196.28;5072430;28;20437;-62
2023/10/31 10:57:03;;;;;;;0.20;0.20;;;;;;;18.86;61.51;100186.25;5072599;28;20048;-62
2023/10/31 10:59:41;;;;;;;0.10;0.10;;;;;;;19.41;58.72;100181.84;5089111;28;20079;-62
2023/10/31 11:02:08;;;;;;;0.10;0.10;;;;;;;19.93;58.73;100178.69;5077934;28;20043;-63
2023/10/31 11:04:37;;;;;;;0.20;0.20;;;;;;;18.83;59.87;100189.59;5072875;28;20041;-62
2023/10/31 11:07:02;;;;;;;0.20;0.20;;;;;;;19.52;59.87;100184.09;5072221;28;20036;-62
2023/10/31 11:09:31;;;;;;;0.20;0.20;;;;;;;20.03;57.67;100194.84;5072661;28;20028;-63
2023/10/31 11:11:57;;;;;;;0.20;0.20;;;;;;;19.99;56.57;100193.81;5072684;28;20460;-63
2023/10/31 11:14:23;;;;;;;0.10;0.10;;;;;;;19.62;58.69;100194.00;5072698;28;20024;-62
2023/10/31 11:16:52;;;;;;;0.10;0.10;;;;;;;20.27;56.10;100191.94;5073191;28;20396;-62
2023/10/31 11:19:18;;;;;;;0.22;0.22;;;;;;;19.69;58.76;100206.16;5072105;28;20041;-63
2023/10/31 11:21:54;;;;;;;0.15;0.15;;;;;;;18.47;61.86;100208.31;5072381;28;20036;-62
2023/10/31 11:24:22;;;;;;;0.20;0.20;;;;;;;18.59;60.38;100216.88;5071926;28;20040;-63
2023/10/31 11:27:00;;;;;;;0.10;0.10;;;;;;;19.29;57.67;100214.97;5071989;28;20059;-61